Lane, Kansas
Current Conditions -  °F | °C
As of 1:53 PM on Thursday 30 Oct 2014 (Local Time) from KIXD Reporting Station
Clear Clear  
Wind Chill: 67°   Ceiling: Unl
Heat Index: 67°   Visibility: 10mi
Dew Point: 38°   Wind: 20mph
Humidity: 34%   Direction: 340°NNW
Pressure: 30.02"   Gusts: 28mph
Location:  38.44°N, 95.08°W
Report Text: KIXD 301853Z 34017G24KT 10SM CLR 19/03 A3002 RMK AO2 PK WND 33027/1825 RAB01E10B27E41 SLP164 P0000 T01940033
Loading
Personal Weather Stations






























Interactive Weather Map
Tropical Storm Tracking
New forecast layout! Learn more

10-Day Weather Forecast

Advertisements
Track Severe Weather on mobile